createdAt,value
2023-04-24T00:00:41.201Z,11.10
2023-04-24T00:01:41.212Z,11.05
2023-04-24T00:02:41.503Z,11.07
2023-04-24T00:03:41.359Z,10.97
2023-04-24T00:04:41.407Z,11.00
2023-04-24T00:05:41.204Z,11.08
2023-04-24T00:06:41.176Z,11.14
2023-04-24T00:07:41.168Z,10.96
2023-04-24T00:08:41.170Z,10.99
2023-04-24T00:09:41.409Z,10.96
2023-04-24T00:10:41.167Z,10.93
2023-04-24T00:11:41.160Z,11.10
2023-04-24T00:12:41.161Z,10.97
2023-04-24T00:13:41.155Z,11.08
2023-04-24T00:14:41.159Z,10.99
2023-04-24T00:15:41.151Z,10.97
2023-04-24T00:16:41.198Z,10.97
2023-04-24T00:17:41.180Z,10.97
2023-04-24T00:18:41.139Z,11.00
2023-04-24T00:19:41.368Z,11.04
2023-04-24T00:20:41.129Z,10.93
2023-04-24T00:21:41.127Z,10.93
2023-04-24T00:22:41.131Z,10.90
2023-04-24T00:23:41.126Z,10.92
2023-04-24T00:24:41.121Z,10.84
2023-04-24T00:25:41.136Z,10.89
2023-04-24T00:26:41.129Z,10.93
2023-04-24T00:27:41.138Z,10.81
2023-04-24T00:28:41.113Z,10.86
2023-04-24T00:29:41.493Z,10.82
2023-04-24T00:30:41.105Z,10.90
2023-04-24T00:31:41.170Z,10.81
2023-04-24T00:32:41.149Z,10.75
2023-04-24T00:33:41.096Z,10.81
2023-04-24T00:34:41.093Z,10.75
2023-04-24T00:35:41.085Z,10.67
2023-04-24T00:36:41.088Z,10.69
2023-04-24T00:37:41.111Z,10.74
2023-04-24T00:38:41.082Z,10.74
2023-04-24T00:39:41.315Z,10.74
2023-04-24T00:40:41.080Z,10.72
2023-04-24T00:41:41.121Z,10.72
2023-04-24T00:42:41.072Z,10.75
2023-04-24T00:43:41.080Z,10.71
2023-04-24T00:44:41.069Z,10.79
2023-04-24T00:45:41.064Z,10.72
2023-04-24T00:46:41.158Z,10.84
2023-04-24T00:47:41.426Z,10.78
2023-04-24T00:48:41.061Z,10.87
2023-04-24T00:49:41.456Z,10.86
2023-04-24T00:50:41.048Z,10.86
2023-04-24T00:51:41.044Z,10.90
2023-04-24T00:52:41.094Z,10.87
2023-04-24T00:53:41.038Z,10.87
2023-04-24T00:54:41.033Z,10.86
2023-04-24T00:55:41.036Z,10.86
2023-04-24T00:56:41.027Z,10.94
2023-04-24T00:57:41.043Z,10.81
2023-04-24T00:58:41.048Z,10.79
2023-04-24T00:59:41.260Z,10.92
2023-04-24T01:00:41.021Z,10.81
2023-04-24T01:02:41.182Z,10.97
2023-04-24T01:03:41.190Z,10.87
2023-04-24T01:04:41.403Z,10.89
2023-04-24T01:05:41.003Z,10.89
2023-04-24T01:06:41.000Z,10.90
2023-04-24T01:07:41.000Z,10.96
2023-04-24T01:08:40.997Z,10.94
2023-04-24T01:09:41.190Z,10.93
2023-04-24T01:10:40.989Z,10.93
2023-04-24T01:11:40.985Z,10.87
2023-04-24T01:12:40.982Z,10.92
2023-04-24T01:13:41.032Z,10.84
2023-04-24T01:14:40.974Z,10.72
2023-04-24T01:15:41.013Z,10.84
2023-04-24T01:16:40.972Z,10.92
2023-04-24T01:17:41.020Z,10.90
2023-04-24T01:18:40.966Z,10.87
2023-04-24T01:19:41.552Z,10.87
2023-04-24T01:20:40.964Z,10.72
2023-04-24T01:21:40.966Z,10.71
2023-04-24T01:22:40.963Z,10.67
2023-04-24T01:23:40.952Z,10.61
2023-04-24T01:24:40.995Z,10.54
2023-04-24T01:25:40.946Z,10.64
2023-04-24T01:26:40.954Z,10.56
2023-04-24T01:27:40.940Z,10.44
2023-04-24T01:28:40.940Z,10.44
2023-04-24T01:29:41.174Z,10.40
2023-04-24T01:30:40.933Z,10.37
2023-04-24T01:31:40.960Z,10.30
2023-04-24T01:32:40.951Z,10.33
2023-04-24T01:33:40.926Z,10.33
2023-04-24T01:34:40.926Z,10.26
2023-04-24T01:35:40.933Z,10.20
2023-04-24T01:36:40.910Z,10.22
2023-04-24T01:37:40.910Z,10.23
2023-04-24T01:38:40.905Z,10.09
2023-04-24T01:39:41.000Z,10.23
2023-04-24T01:40:40.898Z,10.16
2023-04-24T01:41:40.895Z,10.05
2023-04-24T01:42:40.889Z,10.05
2023-04-24T01:43:40.891Z,10.10
2023-04-24T01:44:40.969Z,10.15
2023-04-24T01:45:40.907Z,10.04
2023-04-24T01:46:40.923Z,10.07
2023-04-24T01:47:40.927Z,9.95
2023-04-24T01:48:40.880Z,9.83
2023-04-24T01:49:41.277Z,9.87
2023-04-24T01:50:40.873Z,9.97
2023-04-24T01:51:40.864Z,9.92
2023-04-24T01:52:41.066Z,9.98
2023-04-24T01:53:40.858Z,9.92
2023-04-24T01:54:40.853Z,9.99
2023-04-24T01:55:40.875Z,10.12
2023-04-24T01:56:40.847Z,10.15
2023-04-24T01:57:40.848Z,10.09
2023-04-24T01:58:40.840Z,10.04
2023-04-24T01:59:40.908Z,9.97
2023-04-24T02:00:40.873Z,10.02
2023-04-24T02:01:40.852Z,10.13
2023-04-24T02:02:40.928Z,9.97
2023-04-24T02:03:41.008Z,10.01
2023-04-24T02:04:40.887Z,10.01
2023-04-24T02:05:40.821Z,10.04
2023-04-24T02:06:40.815Z,9.94
2023-04-24T02:07:40.810Z,9.95
2023-04-24T02:08:40.804Z,10.01
2023-04-24T02:09:40.936Z,9.94
2023-04-24T02:10:40.806Z,10.04
2023-04-24T02:11:40.796Z,9.89
2023-04-24T02:12:40.793Z,9.92
2023-04-24T02:13:40.800Z,9.92
2023-04-24T02:14:40.783Z,10.04
2023-04-24T02:15:40.792Z,10.01
2023-04-24T02:16:40.876Z,10.02
2023-04-24T02:17:40.872Z,9.89
2023-04-24T02:18:40.768Z,9.95
2023-04-24T02:19:40.992Z,9.98
2023-04-24T02:20:40.779Z,9.92
2023-04-24T02:21:40.775Z,9.83
2023-04-24T02:22:40.755Z,9.83
2023-04-24T02:23:40.759Z,9.84
2023-04-24T02:24:40.750Z,9.83
2023-04-24T02:25:40.751Z,9.84
2023-04-24T02:26:40.748Z,9.83
2023-04-24T02:27:40.742Z,9.87
2023-04-24T02:28:40.733Z,9.77
2023-04-24T02:29:41.170Z,9.87
2023-04-24T02:30:40.748Z,9.82
2023-04-24T02:31:40.788Z,9.89
2023-04-24T02:32:40.756Z,9.84
2023-04-24T02:33:40.741Z,9.92
2023-04-24T02:34:40.730Z,9.87
2023-04-24T02:35:40.731Z,9.94
2023-04-24T02:36:40.710Z,9.92
2023-04-24T02:37:40.708Z,9.92
2023-04-24T02:38:40.701Z,9.86
2023-04-24T02:39:40.998Z,10.01
2023-04-24T02:40:40.694Z,9.92
2023-04-24T02:41:40.705Z,9.95
2023-04-24T02:42:40.690Z,10.05
2023-04-24T02:43:40.683Z,10.04
2023-04-24T02:44:40.682Z,10.10
2023-04-24T02:45:40.775Z,10.13
2023-04-24T02:46:40.673Z,10.07
2023-04-24T02:47:40.705Z,10.16
2023-04-24T02:48:40.669Z,10.09
2023-04-24T02:49:40.803Z,10.13
2023-04-24T02:50:40.662Z,10.07
2023-04-24T02:51:40.655Z,10.09
2023-04-24T02:52:41.017Z,10.07
2023-04-24T02:53:40.648Z,10.15
2023-04-24T02:54:40.647Z,10.20
2023-04-24T02:55:40.640Z,10.22
2023-04-24T02:56:40.649Z,10.23
2023-04-24T02:57:40.634Z,10.23
2023-04-24T02:58:40.633Z,10.19
2023-04-24T02:59:40.944Z,10.12
2023-04-24T03:00:40.637Z,10.10
2023-04-24T03:01:40.829Z,10.20
2023-04-24T03:02:40.801Z,10.19
2023-04-24T03:03:40.762Z,10.23
2023-04-24T03:04:40.781Z,10.23
2023-04-24T03:05:40.628Z,10.19
2023-04-24T03:06:40.604Z,10.20
2023-04-24T03:07:40.601Z,10.23
2023-04-24T03:08:40.598Z,10.20
2023-04-24T03:09:40.879Z,10.19
2023-04-24T03:10:40.602Z,10.20
2023-04-24T03:11:40.587Z,10.22
2023-04-24T03:12:40.588Z,10.22
2023-04-24T03:13:40.587Z,10.12
2023-04-24T03:14:40.580Z,10.12
2023-04-24T03:15:40.572Z,10.28
2023-04-24T03:16:40.936Z,10.23
2023-04-24T03:17:40.637Z,10.23
2023-04-24T03:18:40.565Z,10.26
2023-04-24T03:19:40.799Z,10.26
2023-04-24T03:20:40.570Z,10.22
2023-04-24T03:21:40.577Z,10.26
2023-04-24T03:22:40.564Z,10.34
2023-04-24T03:23:40.550Z,10.28
2023-04-24T03:24:40.549Z,10.23
2023-04-24T03:25:40.543Z,10.30
2023-04-24T03:26:40.541Z,10.22
2023-04-24T03:27:40.545Z,10.31
2023-04-24T03:28:40.550Z,10.33
2023-04-24T03:29:40.633Z,10.20
2023-04-24T03:30:40.534Z,10.20
2023-04-24T03:31:40.543Z,10.20
2023-04-24T03:32:40.637Z,10.22
2023-04-24T03:33:40.536Z,10.25
2023-04-24T03:34:40.515Z,10.20
2023-04-24T03:35:40.511Z,10.31
2023-04-24T03:36:40.530Z,10.20
2023-04-24T03:37:40.545Z,10.20
2023-04-24T03:38:40.510Z,10.23
2023-04-24T03:39:40.939Z,10.28
2023-04-24T03:40:40.498Z,10.22
2023-04-24T03:41:40.495Z,10.23
2023-04-24T03:42:40.491Z,10.25
2023-04-24T03:43:40.487Z,10.31
2023-04-24T03:44:40.490Z,10.22
2023-04-24T03:45:40.481Z,10.35
2023-04-24T03:46:40.617Z,10.28
2023-04-24T03:47:40.568Z,10.26
2023-04-24T03:48:40.472Z,10.22
2023-04-24T03:49:40.753Z,10.23
2023-04-24T03:50:40.474Z,10.25
2023-04-24T03:51:40.461Z,10.26
2023-04-24T03:52:40.721Z,10.19
2023-04-24T03:53:40.482Z,10.22
2023-04-24T03:54:40.457Z,10.17
2023-04-24T03:55:40.450Z,10.22
2023-04-24T03:56:40.447Z,10.19
2023-04-24T03:57:40.444Z,10.20
2023-04-24T03:58:40.451Z,10.17
2023-04-24T03:59:40.622Z,10.20
2023-04-24T04:00:40.431Z,10.26
2023-04-24T04:01:42.841Z,10.20
2023-04-24T04:02:40.573Z,10.16
2023-04-24T04:03:40.713Z,10.23
2023-04-24T04:04:40.683Z,10.22
2023-04-24T04:05:40.413Z,10.23
2023-04-24T04:06:40.424Z,10.25
2023-04-24T04:07:40.406Z,10.17
2023-04-24T04:08:40.408Z,10.26
2023-04-24T04:09:40.447Z,10.17
2023-04-24T04:10:40.404Z,10.19
2023-04-24T04:11:40.396Z,10.28
2023-04-24T04:12:40.395Z,10.28
2023-04-24T04:13:40.392Z,10.25
2023-04-24T04:14:40.409Z,10.26
2023-04-24T04:15:40.381Z,10.25
2023-04-24T04:16:40.437Z,10.22
2023-04-24T04:17:40.391Z,10.17
2023-04-24T04:18:40.384Z,10.17
2023-04-24T04:19:40.575Z,10.25
2023-04-24T04:20:40.364Z,10.22
2023-04-24T04:21:40.358Z,10.19
2023-04-24T04:22:42.722Z,10.16
2023-04-24T04:23:40.351Z,10.17
2023-04-24T04:24:40.360Z,10.15
2023-04-24T04:25:40.387Z,10.07
2023-04-24T04:26:40.357Z,10.16
2023-04-24T04:27:40.340Z,10.17
2023-04-24T04:28:40.388Z,10.02
2023-04-24T04:29:40.431Z,10.15
2023-04-24T04:30:40.329Z,10.10
2023-04-24T04:31:40.347Z,10.07
2023-04-24T04:32:40.378Z,10.05
2023-04-24T04:33:40.321Z,10.16
2023-04-24T04:34:40.318Z,10.13
2023-04-24T04:35:40.314Z,10.15
2023-04-24T04:36:40.314Z,10.05
2023-04-24T04:37:40.307Z,10.15
2023-04-24T04:38:42.426Z,10.07
2023-04-24T04:39:40.394Z,10.16
2023-04-24T04:40:40.298Z,10.12
2023-04-24T04:41:40.313Z,10.05
2023-04-24T04:42:40.301Z,10.17
2023-04-24T04:43:40.287Z,10.16
2023-04-24T04:44:40.286Z,10.16
2023-04-24T04:45:40.325Z,10.13
2023-04-24T04:46:40.288Z,10.22
2023-04-24T04:47:40.302Z,10.20
2023-04-24T04:48:40.276Z,10.12
2023-04-24T04:49:40.387Z,10.26
2023-04-24T04:50:40.266Z,10.17
2023-04-24T04:51:42.420Z,10.16
2023-04-24T04:52:40.259Z,10.13
2023-04-24T04:53:40.257Z,10.20
2023-04-24T04:54:40.252Z,10.15
2023-04-24T04:55:40.262Z,10.20
2023-04-24T04:56:40.247Z,10.10
2023-04-24T04:57:40.375Z,10.01
2023-04-24T04:58:40.252Z,10.15
2023-04-24T04:59:40.266Z,10.20
2023-04-24T05:00:40.246Z,10.28
2023-04-24T05:01:40.300Z,10.23
2023-04-24T05:02:40.462Z,10.20
2023-04-24T05:03:40.411Z,10.15
2023-04-24T05:04:40.603Z,10.19
2023-04-24T05:05:40.230Z,10.16
2023-04-24T05:06:40.214Z,10.19
2023-04-24T05:07:40.208Z,10.20
2023-04-24T05:08:40.206Z,10.20
2023-04-24T05:09:40.204Z,10.26
2023-04-24T05:10:40.202Z,10.17
2023-04-24T05:11:40.195Z,10.16
2023-04-24T05:12:40.199Z,10.19
2023-04-24T05:13:41.262Z,10.22
2023-04-24T05:14:40.195Z,10.16
2023-04-24T05:15:40.184Z,10.26
2023-04-24T05:16:40.209Z,10.12
2023-04-24T05:17:40.453Z,10.10
2023-04-24T05:18:40.259Z,10.13
2023-04-24T05:19:40.272Z,10.16
2023-04-24T05:20:40.168Z,10.12
2023-04-24T05:21:40.183Z,10.09
2023-04-24T05:22:40.158Z,10.04
2023-04-24T05:23:40.165Z,10.15
2023-04-24T05:24:40.156Z,10.05
2023-04-24T05:25:40.162Z,10.05
2023-04-24T05:26:40.148Z,9.97
2023-04-24T05:27:40.150Z,10.04
2023-04-24T05:28:40.146Z,10.02
2023-04-24T05:29:40.176Z,10.10
2023-04-24T05:30:40.145Z,10.01
2023-04-24T05:31:40.221Z,9.95
2023-04-24T05:32:40.229Z,10.01
2023-04-24T05:33:40.126Z,9.98
2023-04-24T05:34:40.123Z,9.98
2023-04-24T05:35:40.116Z,10.07
2023-04-24T05:36:40.117Z,10.02
2023-04-24T05:37:40.112Z,10.10
2023-04-24T05:38:40.108Z,10.01
2023-04-24T05:39:40.112Z,9.95
2023-04-24T05:40:40.106Z,9.91
2023-04-24T05:41:40.100Z,10.01
2023-04-24T05:42:40.093Z,9.91
2023-04-24T05:43:40.096Z,9.83
2023-04-24T05:44:40.091Z,9.77
2023-04-24T05:45:40.111Z,9.74
2023-04-24T05:46:40.164Z,9.66
2023-04-24T05:47:40.108Z,9.68
2023-04-24T05:48:40.081Z,9.66
2023-04-24T05:49:40.095Z,9.73
2023-04-24T05:50:40.066Z,9.68
2023-04-24T05:51:40.062Z,9.64
2023-04-24T05:52:40.082Z,9.64
2023-04-24T05:53:40.070Z,9.69
2023-04-24T05:54:40.065Z,9.69
2023-04-24T05:55:40.062Z,9.68
2023-04-24T05:56:41.241Z,9.68
2023-04-24T05:57:40.043Z,9.65
2023-04-24T05:58:40.055Z,9.72
2023-04-24T05:59:40.093Z,9.66
2023-04-24T06:00:40.048Z,9.66
2023-04-24T06:01:40.103Z,9.65
2023-04-24T06:02:40.184Z,9.69
2023-04-24T06:03:40.154Z,9.76
2023-04-24T06:04:40.219Z,9.69
2023-04-24T06:05:40.015Z,9.66
2023-04-24T06:06:40.019Z,9.68
2023-04-24T06:07:40.015Z,9.69
2023-04-24T06:08:40.015Z,9.68
2023-04-24T06:09:40.023Z,9.66
2023-04-24T06:10:40.018Z,9.64
2023-04-24T06:11:39.992Z,9.64
2023-04-24T06:12:39.996Z,9.68
2023-04-24T06:13:39.992Z,9.64
2023-04-24T06:14:39.986Z,9.69
2023-04-24T06:15:39.977Z,9.64
2023-04-24T06:16:40.056Z,9.66
2023-04-24T06:17:40.013Z,9.64
2023-04-24T06:18:39.964Z,9.66
2023-04-24T06:19:39.983Z,9.68
2023-04-24T06:20:39.978Z,9.66
2023-04-24T06:21:39.962Z,9.58
2023-04-24T06:22:40.361Z,9.54
2023-04-24T06:23:39.965Z,9.55
2023-04-24T06:24:39.946Z,9.58
2023-04-24T06:25:39.945Z,9.56
2023-04-24T06:26:39.949Z,9.51
2023-04-24T06:27:39.940Z,9.51
2023-04-24T06:28:39.934Z,9.56
2023-04-24T06:29:39.954Z,9.59
2023-04-24T06:30:39.931Z,9.51
2023-04-24T06:31:39.948Z,9.59
2023-04-24T06:34:40.159Z,9.50
2023-04-24T06:35:39.909Z,9.55
2023-04-24T06:36:39.908Z,9.56
2023-04-24T06:37:39.910Z,9.55
2023-04-24T06:38:39.901Z,9.58
2023-04-24T06:39:39.900Z,9.55
2023-04-24T06:40:41.317Z,9.51
2023-04-24T06:42:39.883Z,9.48
2023-04-24T06:43:39.886Z,9.47
2023-04-24T06:44:39.875Z,9.48
2023-04-24T06:45:39.904Z,9.51
2023-04-24T06:46:41.786Z,9.47
2023-04-24T06:47:39.903Z,9.51
2023-04-24T06:48:39.857Z,9.46
2023-04-24T06:49:39.870Z,9.47
2023-04-24T06:50:39.873Z,9.47
2023-04-24T06:51:39.853Z,9.47
2023-04-24T06:52:39.850Z,9.43
2023-04-24T06:53:39.861Z,9.44
2023-04-24T06:54:39.850Z,9.47
2023-04-24T06:55:39.843Z,9.48
2023-04-24T06:56:39.839Z,9.43
2023-04-24T06:57:39.832Z,9.56
2023-04-24T06:58:39.832Z,9.56
2023-04-24T06:59:39.825Z,9.55
2023-04-24T07:00:39.833Z,9.61
2023-04-24T07:01:39.853Z,9.58
2023-04-24T07:02:39.996Z,9.56
2023-04-24T07:03:39.969Z,9.58
2023-04-24T07:04:39.930Z,9.59
2023-04-24T07:05:39.802Z,9.59
2023-04-24T07:06:39.842Z,9.39
2023-04-24T07:07:39.796Z,9.50
2023-04-24T07:08:39.845Z,9.48
2023-04-24T07:09:39.843Z,9.47
2023-04-24T07:10:39.784Z,9.50
2023-04-24T07:11:39.781Z,9.41
2023-04-24T07:12:39.781Z,9.43
2023-04-24T07:13:39.773Z,9.47
2023-04-24T07:14:39.776Z,9.34
2023-04-24T07:15:39.789Z,9.34
2023-04-24T07:16:39.804Z,9.34
2023-04-24T07:17:39.848Z,9.26
2023-04-24T07:18:39.764Z,9.36
2023-04-24T07:19:39.753Z,9.31
2023-04-24T07:20:39.753Z,9.34
2023-04-24T07:21:39.744Z,9.29
2023-04-24T07:22:39.782Z,9.26
2023-04-24T07:23:39.736Z,9.31
2023-04-24T07:24:39.739Z,9.29
2023-04-24T07:25:39.731Z,9.32
2023-04-24T07:26:39.739Z,9.21
2023-04-24T07:27:39.726Z,9.22
2023-04-24T07:28:39.769Z,9.21
2023-04-24T07:29:39.717Z,9.19
2023-04-24T07:30:39.716Z,9.19
2023-04-24T07:31:39.745Z,9.13
2023-04-24T07:32:39.731Z,9.18
2023-04-24T07:33:39.704Z,9.22
2023-04-24T07:34:39.699Z,9.21
2023-04-24T07:35:39.692Z,9.19
2023-04-24T07:36:39.695Z,9.16
2023-04-24T07:37:39.697Z,9.10
2023-04-24T07:38:39.701Z,9.06
2023-04-24T07:39:39.682Z,9.04
2023-04-24T07:40:39.676Z,9.06
2023-04-24T07:41:39.670Z,9.02
2023-04-24T07:42:40.030Z,9.02
2023-04-24T07:43:39.668Z,8.99
2023-04-24T07:44:39.665Z,8.88
2023-04-24T07:45:39.659Z,8.94
2023-04-24T07:47:39.665Z,8.85
2023-04-24T07:48:39.644Z,8.76
2023-04-24T07:49:39.646Z,8.58
2023-04-24T07:50:39.637Z,8.52
2023-04-24T07:51:39.632Z,8.30
2023-04-24T07:52:39.632Z,8.19
2023-04-24T07:53:39.623Z,8.15
2023-04-24T07:54:39.645Z,8.06
2023-04-24T07:55:39.617Z,8.03
2023-04-24T07:56:39.648Z,7.94
2023-04-24T07:57:39.624Z,7.91
2023-04-24T07:58:39.607Z,7.85
2023-04-24T07:59:39.601Z,7.85
2023-04-24T08:00:39.599Z,7.73
2023-04-24T08:01:39.601Z,7.85
2023-04-24T08:03:39.729Z,7.76
2023-04-24T08:04:39.744Z,7.80
2023-04-24T08:05:41.131Z,7.80
2023-04-24T08:06:39.586Z,7.79
2023-04-24T08:07:39.580Z,7.83
2023-04-24T08:08:39.563Z,7.79
2023-04-24T08:09:39.569Z,7.79
2023-04-24T08:10:39.577Z,7.94
2023-04-24T08:11:39.549Z,7.95
2023-04-24T08:12:39.575Z,7.87
2023-04-24T08:13:39.547Z,8.00
2023-04-24T08:14:39.547Z,7.93
2023-04-24T08:15:39.533Z,7.94
2023-04-24T08:16:39.601Z,7.97
2023-04-24T08:17:39.536Z,7.85
2023-04-24T08:18:39.522Z,7.87
2023-04-24T08:19:39.516Z,7.77
2023-04-24T08:20:39.515Z,7.82
2023-04-24T08:21:39.505Z,7.77
2023-04-24T08:22:39.510Z,7.82
2023-04-24T08:23:39.509Z,7.79
2023-04-24T08:24:39.498Z,7.79
2023-04-24T08:25:39.495Z,7.82
2023-04-24T08:26:39.509Z,7.87
2023-04-24T08:27:39.482Z,7.91
2023-04-24T08:28:39.478Z,8.00
2023-04-24T08:29:39.475Z,7.94
2023-04-24T08:30:39.472Z,8.15
2023-04-24T08:31:39.500Z,8.06
2023-04-24T08:32:39.523Z,8.23
2023-04-24T08:33:39.467Z,8.24
2023-04-24T08:34:39.463Z,8.28
2023-04-24T08:35:39.446Z,8.26
2023-04-24T08:36:46.556Z,8.16
2023-04-24T08:37:39.442Z,8.19
2023-04-24T08:38:40.206Z,8.18
2023-04-24T08:39:39.436Z,8.16
2023-04-24T08:40:39.439Z,8.06
2023-04-24T08:41:39.430Z,8.18
2023-04-24T08:42:39.451Z,8.12
2023-04-24T08:43:39.414Z,8.06
2023-04-24T08:44:39.416Z,8.10
2023-04-24T08:45:39.450Z,8.08
2023-04-24T08:46:39.460Z,8.09
2023-04-24T08:47:39.450Z,8.16
2023-04-24T08:48:39.397Z,8.16
2023-04-24T08:49:40.293Z,8.16
2023-04-24T08:50:39.392Z,8.24
2023-04-24T08:51:39.383Z,8.26
2023-04-24T08:52:39.382Z,8.33
2023-04-24T08:53:39.372Z,8.41
2023-04-24T08:54:39.372Z,8.38
2023-04-24T08:55:39.365Z,8.41
2023-04-24T08:56:39.368Z,8.46
2023-04-24T08:57:39.367Z,8.48
2023-04-24T08:58:39.378Z,8.45
2023-04-24T08:59:39.351Z,8.38
2023-04-24T09:00:39.346Z,8.49
2023-04-24T09:01:39.368Z,8.44
2023-04-24T09:02:39.459Z,8.44
2023-04-24T09:03:39.406Z,8.44
2023-04-24T09:04:39.400Z,8.30
2023-04-24T09:05:39.326Z,8.46
2023-04-24T09:06:39.319Z,8.37
2023-04-24T09:07:39.313Z,8.34
2023-04-24T09:08:39.313Z,8.36
2023-04-24T09:09:39.306Z,8.18
2023-04-24T09:10:39.304Z,8.23
2023-04-24T09:11:39.304Z,8.26
2023-04-24T09:12:39.312Z,8.20
2023-04-24T09:13:39.288Z,8.23
2023-04-24T09:14:39.305Z,8.23
2023-04-24T09:15:39.279Z,8.18
2023-04-24T09:16:39.289Z,8.06
2023-04-24T09:17:39.297Z,8.06
2023-04-24T09:18:39.268Z,8.05
2023-04-24T09:19:39.260Z,8.15
2023-04-24T09:20:39.258Z,8.09
2023-04-24T09:21:39.256Z,8.03
2023-04-24T09:22:39.488Z,8.06
2023-04-24T09:23:39.250Z,8.08
2023-04-24T09:24:39.260Z,8.10
2023-04-24T09:25:39.232Z,8.16
2023-04-24T09:26:39.228Z,8.18
2023-04-24T09:27:39.231Z,8.16
2023-04-24T09:28:39.675Z,8.18
2023-04-24T09:29:39.226Z,8.16
2023-04-24T09:30:39.234Z,8.16
2023-04-24T09:31:39.242Z,8.23
2023-04-24T09:32:39.265Z,8.27
2023-04-24T09:33:39.205Z,8.20
2023-04-24T09:34:39.211Z,8.20
2023-04-24T09:35:39.194Z,8.24
2023-04-24T09:36:39.380Z,8.24
2023-04-24T09:37:39.192Z,8.20
2023-04-24T09:38:39.208Z,8.18
2023-04-24T09:39:39.171Z,8.20
2023-04-24T09:40:41.100Z,8.19
2023-04-24T09:41:39.161Z,8.16
2023-04-24T09:42:39.157Z,8.13
2023-04-24T09:43:39.149Z,8.03
2023-04-24T09:44:39.146Z,8.09
2023-04-24T09:45:39.222Z,8.10
2023-04-24T09:46:39.234Z,8.09
2023-04-24T09:47:39.149Z,8.09
2023-04-24T09:48:39.136Z,8.12
2023-04-24T09:49:39.121Z,8.09
2023-04-24T09:50:39.136Z,8.13
2023-04-24T09:51:39.111Z,8.16
2023-04-24T09:52:39.130Z,8.15
2023-04-24T09:53:39.104Z,8.05
2023-04-24T09:54:39.103Z,8.19
2023-04-24T09:55:40.474Z,8.19
2023-04-24T09:56:39.090Z,8.19
2023-04-24T09:57:39.092Z,8.16
2023-04-24T09:58:39.088Z,8.27
2023-04-24T09:59:39.076Z,8.27
2023-04-24T10:00:39.075Z,8.24
2023-04-24T10:01:39.100Z,8.26
2023-04-24T10:02:39.184Z,8.20
2023-04-24T10:03:39.070Z,8.34
2023-04-24T10:04:39.090Z,8.37
2023-04-24T10:05:39.064Z,8.34
2023-04-24T10:06:39.047Z,8.49
2023-04-24T10:07:39.032Z,8.51
2023-04-24T10:08:39.052Z,8.45
2023-04-24T10:09:39.036Z,8.52
2023-04-24T10:10:39.028Z,8.49
2023-04-24T10:11:39.016Z,8.49
2023-04-24T10:12:39.014Z,8.46
2023-04-24T10:13:39.009Z,8.48
2023-04-24T10:14:39.012Z,8.49
2023-04-24T10:15:39.024Z,8.49
2023-04-24T10:16:38.999Z,8.49
2023-04-24T10:17:39.023Z,8.55
2023-04-24T10:18:39.036Z,8.52
2023-04-24T10:19:39.013Z,8.63
2023-04-24T10:20:38.978Z,8.52
2023-04-24T10:21:38.973Z,8.56
2023-04-24T10:22:38.968Z,8.63
2023-04-24T10:23:38.962Z,8.69
2023-04-24T10:24:38.963Z,8.74
2023-04-24T10:25:38.955Z,8.69
2023-04-24T10:26:38.963Z,8.81
2023-04-24T10:27:38.943Z,8.81
2023-04-24T10:28:38.948Z,8.81
2023-04-24T10:29:38.935Z,8.78
2023-04-24T10:30:38.934Z,8.82
2023-04-24T10:31:38.962Z,8.82
2023-04-24T10:32:38.976Z,8.78
2023-04-24T10:33:38.928Z,8.71
2023-04-24T10:34:38.968Z,8.81
2023-04-24T10:35:38.906Z,8.78
2023-04-24T10:36:38.904Z,8.76
2023-04-24T10:37:38.906Z,8.74
2023-04-24T10:38:38.946Z,8.78
2023-04-24T10:39:38.896Z,8.87
2023-04-24T10:40:38.905Z,8.82
2023-04-24T10:41:38.881Z,8.87
2023-04-24T10:42:38.880Z,8.85
2023-04-24T10:43:38.875Z,8.95
2023-04-24T10:44:38.868Z,8.92
2023-04-24T10:45:38.870Z,8.88
2023-04-24T10:46:38.892Z,8.95
2023-04-24T10:47:38.868Z,8.89
2023-04-24T10:48:38.855Z,8.97
2023-04-24T10:49:38.852Z,8.95
2023-04-24T10:50:38.878Z,8.88
2023-04-24T10:51:38.842Z,8.91
2023-04-24T10:52:38.834Z,8.94
2023-04-24T10:53:38.831Z,8.92
2023-04-24T10:54:38.839Z,8.91
2023-04-24T10:55:38.820Z,8.92
2023-04-24T10:56:38.817Z,9.00
2023-04-24T10:57:38.811Z,8.95
2023-04-24T10:58:38.810Z,8.97
2023-04-24T10:59:38.804Z,8.99
2023-04-24T11:00:38.841Z,8.91
2023-04-24T11:01:40.752Z,8.88
2023-04-24T11:02:38.920Z,8.81
2023-04-24T11:03:39.056Z,8.82
2023-04-24T11:04:38.829Z,8.74
2023-04-24T11:05:38.774Z,8.81
2023-04-24T11:06:38.815Z,8.87
2023-04-24T11:07:38.765Z,8.84
2023-04-24T11:08:38.759Z,8.89
2023-04-24T11:09:38.762Z,9.00
2023-04-24T11:10:38.756Z,8.97
2023-04-24T11:11:38.750Z,9.03
2023-04-24T11:12:38.742Z,9.10
2023-04-24T11:13:38.737Z,9.11
2023-04-24T11:14:38.732Z,9.22
2023-04-24T11:15:38.727Z,9.14
2023-04-24T11:16:38.769Z,9.25
2023-04-24T11:17:38.864Z,9.23
2023-04-24T11:18:38.757Z,9.23
2023-04-24T11:19:38.729Z,9.18
2023-04-24T11:20:38.705Z,9.18
2023-04-24T11:21:38.701Z,9.08
2023-04-24T11:22:38.714Z,9.08
2023-04-24T11:23:38.702Z,8.99
2023-04-24T11:24:38.690Z,8.99
2023-04-24T11:25:38.683Z,8.89
2023-04-24T11:26:38.714Z,8.91
2023-04-24T11:27:38.672Z,8.92
2023-04-24T11:28:39.714Z,8.88
2023-04-24T11:29:38.670Z,8.78
2023-04-24T11:30:38.662Z,8.84
2023-04-24T11:31:38.717Z,8.82
2023-04-24T11:32:38.697Z,8.73
2023-04-24T11:33:39.207Z,8.79
2023-04-24T11:34:38.643Z,8.84
2023-04-24T11:35:38.651Z,8.78
2023-04-24T11:36:38.640Z,8.78
2023-04-24T11:37:38.635Z,8.84
2023-04-24T11:38:38.645Z,8.89
2023-04-24T11:39:38.630Z,8.89
2023-04-24T11:40:38.627Z,8.95
2023-04-24T11:41:38.611Z,8.91
2023-04-24T11:42:38.608Z,8.88
2023-04-24T11:43:38.641Z,8.88
2023-04-24T11:44:38.597Z,8.92
2023-04-24T11:45:38.639Z,8.89
2023-04-24T11:46:38.691Z,8.87
2023-04-24T11:47:38.606Z,8.94
2023-04-24T11:48:38.602Z,8.89
2023-04-24T11:49:38.581Z,8.99
2023-04-24T11:50:38.606Z,9.19
2023-04-24T11:51:51.096Z,9.06
2023-04-24T11:52:38.560Z,9.22
2023-04-24T11:53:38.603Z,9.21
2023-04-24T11:54:38.585Z,9.28
2023-04-24T11:55:38.564Z,9.25
2023-04-24T11:56:38.734Z,9.34
2023-04-24T11:57:38.565Z,9.43
2023-04-24T11:58:38.538Z,9.55
2023-04-24T11:59:38.557Z,9.40
2023-04-24T12:00:38.556Z,9.46
2023-04-24T12:01:38.531Z,9.31
2023-04-24T12:02:40.202Z,9.25
2023-04-24T12:03:38.723Z,9.22
2023-04-24T12:04:38.855Z,9.21
2023-04-24T12:05:38.608Z,9.14
2023-04-24T12:06:38.531Z,9.06
2023-04-24T12:07:38.538Z,8.95
2023-04-24T12:08:40.901Z,8.99
2023-04-24T12:09:38.518Z,8.97
2023-04-24T12:10:38.536Z,8.95
2023-04-24T12:11:38.553Z,8.91
2023-04-24T12:12:38.484Z,8.92
2023-04-24T12:13:38.538Z,8.82
2023-04-24T12:14:38.510Z,8.87
2023-04-24T12:15:38.489Z,8.81
2023-04-24T12:16:38.595Z,8.95
2023-04-24T12:17:38.508Z,9.03
2023-04-24T12:18:38.474Z,9.16
2023-04-24T12:19:38.450Z,9.23
2023-04-24T12:20:38.448Z,9.23
2023-04-24T12:21:38.440Z,9.22
2023-04-24T12:22:38.433Z,9.18
2023-04-24T12:23:38.594Z,9.18
2023-04-24T12:24:38.426Z,9.11
2023-04-24T12:25:38.421Z,9.19
2023-04-24T12:26:38.464Z,9.16
2023-04-24T12:27:38.416Z,9.26
2023-04-24T12:28:38.655Z,9.31
2023-04-24T12:29:38.403Z,9.32
2023-04-24T12:30:38.402Z,9.37
2023-04-24T12:31:38.427Z,9.41
2023-04-24T12:32:38.406Z,9.51
2023-04-24T12:33:38.676Z,9.68
2023-04-24T12:34:38.385Z,9.69
2023-04-24T12:35:38.398Z,9.74
2023-04-24T12:36:38.383Z,9.84
2023-04-24T12:37:38.379Z,9.94
2023-04-24T12:38:38.470Z,9.94
2023-04-24T12:39:38.364Z,9.89
2023-04-24T12:40:38.363Z,9.97
2023-04-24T12:41:38.358Z,9.95
2023-04-24T12:42:38.368Z,10.07
2023-04-24T12:43:38.644Z,9.95
2023-04-24T12:44:38.335Z,9.95
2023-04-24T12:45:38.335Z,9.95
2023-04-24T12:46:38.435Z,9.86
2023-04-24T12:47:38.330Z,9.84
2023-04-24T12:48:38.386Z,9.83
2023-04-24T12:49:38.318Z,9.74
2023-04-24T12:50:38.317Z,9.65
2023-04-24T12:51:38.312Z,9.59
2023-04-24T12:52:38.306Z,9.55
2023-04-24T12:53:38.307Z,9.58
2023-04-24T12:54:38.343Z,9.69
2023-04-24T12:55:38.294Z,9.58
2023-04-24T12:56:38.286Z,9.65
2023-04-24T12:57:38.289Z,9.73
2023-04-24T12:58:38.449Z,9.74
2023-04-24T12:59:38.276Z,9.77
2023-04-24T13:00:38.283Z,9.84
2023-04-24T13:01:38.320Z,9.89
2023-04-24T13:02:38.457Z,9.83
2023-04-24T13:03:38.505Z,9.94
2023-04-24T13:04:38.275Z,9.89
2023-04-24T13:05:38.271Z,9.92
2023-04-24T13:06:38.277Z,10.10
2023-04-24T13:07:38.249Z,10.09
2023-04-24T13:08:38.301Z,9.98
2023-04-24T13:09:41.186Z,9.92
2023-04-24T13:10:38.280Z,10.01
2023-04-24T13:11:38.262Z,10.01
2023-04-24T13:12:38.253Z,10.02
2023-04-24T13:13:38.215Z,10.05
2023-04-24T13:14:38.328Z,10.04